sensor_id;sensor_type;location;lat;lon;timestamp;P1;durP1;ratioP1;P2;durP2;ratioP2
27847;SDS011;15212;48.830;8.730;2024-01-30T00:01:32;3.40;;;2.08;;
27847;SDS011;15212;48.830;8.730;2024-01-30T00:04:01;5.12;;;2.12;;
27847;SDS011;15212;48.830;8.730;2024-01-30T00:06:29;3.95;;;2.00;;
27847;SDS011;15212;48.830;8.730;2024-01-30T00:08:58;5.20;;;1.98;;
27847;SDS011;15212;48.830;8.730;2024-01-30T00:11:27;3.17;;;1.80;;
27847;SDS011;15212;48.830;8.730;2024-01-30T00:13:55;3.17;;;1.90;;
27847;SDS011;15212;48.830;8.730;2024-01-30T00:16:24;3.95;;;1.90;;
27847;SDS011;15212;48.830;8.730;2024-01-30T00:18:53;3.40;;;2.12;;
27847;SDS011;15212;48.830;8.730;2024-01-30T00:21:22;3.27;;;2.12;;
27847;SDS011;15212;48.830;8.730;2024-01-30T00:23:51;2.85;;;1.65;;
27847;SDS011;15212;48.830;8.730;2024-01-30T00:26:20;3.45;;;1.98;;
27847;SDS011;15212;48.830;8.730;2024-01-30T00:28:48;6.37;;;2.37;;
27847;SDS011;15212;48.830;8.730;2024-01-30T00:31:16;4.37;;;2.22;;
27847;SDS011;15212;48.830;8.730;2024-01-30T00:33:45;4.28;;;1.90;;
27847;SDS011;15212;48.830;8.730;2024-01-30T00:36:13;3.77;;;2.17;;
27847;SDS011;15212;48.830;8.730;2024-01-30T00:38:42;4.12;;;2.30;;
27847;SDS011;15212;48.830;8.730;2024-01-30T00:41:10;3.05;;;1.90;;
27847;SDS011;15212;48.830;8.730;2024-01-30T00:43:38;3.58;;;2.17;;
27847;SDS011;15212;48.830;8.730;2024-01-30T00:46:07;6.28;;;2.60;;
27847;SDS011;15212;48.830;8.730;2024-01-30T00:48:35;4.97;;;2.45;;
27847;SDS011;15212;48.830;8.730;2024-01-30T00:51:04;6.05;;;2.12;;
27847;SDS011;15212;48.830;8.730;2024-01-30T00:53:32;4.72;;;2.40;;
27847;SDS011;15212;48.830;8.730;2024-01-30T00:56:00;3.27;;;2.40;;
27847;SDS011;15212;48.830;8.730;2024-01-30T00:58:29;5.25;;;2.42;;
27847;SDS011;15212;48.830;8.730;2024-01-30T01:00:57;8.93;;;2.62;;
27847;SDS011;15212;48.830;8.730;2024-01-30T01:03:26;6.95;;;2.35;;
27847;SDS011;15212;48.830;8.730;2024-01-30T01:05:54;4.87;;;2.30;;
27847;SDS011;15212;48.830;8.730;2024-01-30T01:08:22;3.47;;;2.40;;
27847;SDS011;15212;48.830;8.730;2024-01-30T01:10:51;4.30;;;2.58;;
27847;SDS011;15212;48.830;8.730;2024-01-30T01:13:19;3.80;;;2.42;;
27847;SDS011;15212;48.830;8.730;2024-01-30T01:15:48;3.52;;;1.85;;
27847;SDS011;15212;48.830;8.730;2024-01-30T01:18:16;6.05;;;2.40;;
27847;SDS011;15212;48.830;8.730;2024-01-30T01:20:44;4.62;;;2.33;;
27847;SDS011;15212;48.830;8.730;2024-01-30T01:23:13;3.27;;;2.35;;
27847;SDS011;15212;48.830;8.730;2024-01-30T01:25:41;6.12;;;2.42;;
27847;SDS011;15212;48.830;8.730;2024-01-30T01:28:09;4.28;;;2.20;;
27847;SDS011;15212;48.830;8.730;2024-01-30T01:30:38;5.55;;;2.52;;
27847;SDS011;15212;48.830;8.730;2024-01-30T01:33:07;4.75;;;2.10;;
27847;SDS011;15212;48.830;8.730;2024-01-30T01:35:36;5.90;;;2.25;;
27847;SDS011;15212;48.830;8.730;2024-01-30T01:38:05;3.77;;;2.17;;
27847;SDS011;15212;48.830;8.730;2024-01-30T01:40:33;3.92;;;2.00;;
27847;SDS011;15212;48.830;8.730;2024-01-30T01:43:03;5.22;;;2.05;;
27847;SDS011;15212;48.830;8.730;2024-01-30T01:45:31;4.70;;;1.92;;
27847;SDS011;15212;48.830;8.730;2024-01-30T01:48:00;5.53;;;2.30;;
27847;SDS011;15212;48.830;8.730;2024-01-30T01:50:28;5.22;;;2.02;;
27847;SDS011;15212;48.830;8.730;2024-01-30T01:52:57;4.50;;;2.30;;
27847;SDS011;15212;48.830;8.730;2024-01-30T01:55:26;4.83;;;2.20;;
27847;SDS011;15212;48.830;8.730;2024-01-30T01:57:56;3.22;;;2.10;;
27847;SDS011;15212;48.830;8.730;2024-01-30T02:00:25;6.25;;;2.40;;
27847;SDS011;15212;48.830;8.730;2024-01-30T02:02:54;2.92;;;2.10;;
27847;SDS011;15212;48.830;8.730;2024-01-30T02:05:23;3.12;;;1.77;;
27847;SDS011;15212;48.830;8.730;2024-01-30T02:07:52;4.58;;;2.25;;
27847;SDS011;15212;48.830;8.730;2024-01-30T02:10:21;2.95;;;1.90;;
27847;SDS011;15212;48.830;8.730;2024-01-30T02:12:49;4.50;;;2.10;;
27847;SDS011;15212;48.830;8.730;2024-01-30T02:15:18;2.83;;;2.10;;
27847;SDS011;15212;48.830;8.730;2024-01-30T02:17:46;6.25;;;1.98;;
27847;SDS011;15212;48.830;8.730;2024-01-30T02:20:14;4.22;;;2.20;;
27847;SDS011;15212;48.830;8.730;2024-01-30T02:22:43;3.92;;;2.10;;
27847;SDS011;15212;48.830;8.730;2024-01-30T02:25:12;5.67;;;2.35;;
27847;SDS011;15212;48.830;8.730;2024-01-30T02:27:40;4.25;;;2.40;;
27847;SDS011;15212;48.830;8.730;2024-01-30T02:30:09;5.30;;;2.00;;
27847;SDS011;15212;48.830;8.730;2024-01-30T02:32:38;3.77;;;2.08;;
27847;SDS011;15212;48.830;8.730;2024-01-30T02:35:07;6.22;;;2.20;;
27847;SDS011;15212;48.830;8.730;2024-01-30T02:37:35;4.62;;;2.30;;
27847;SDS011;15212;48.830;8.730;2024-01-30T02:40:04;4.97;;;2.17;;
27847;SDS011;15212;48.830;8.730;2024-01-30T02:42:33;3.95;;;2.12;;
27847;SDS011;15212;48.830;8.730;2024-01-30T02:45:02;4.67;;;2.25;;
27847;SDS011;15212;48.830;8.730;2024-01-30T02:47:30;6.60;;;2.37;;
27847;SDS011;15212;48.830;8.730;2024-01-30T02:49:59;3.30;;;2.10;;
27847;SDS011;15212;48.830;8.730;2024-01-30T02:52:27;4.40;;;2.20;;
27847;SDS011;15212;48.830;8.730;2024-01-30T02:54:55;5.17;;;2.10;;
27847;SDS011;15212;48.830;8.730;2024-01-30T02:57:24;3.37;;;2.50;;
27847;SDS011;15212;48.830;8.730;2024-01-30T02:59:52;6.95;;;2.20;;
27847;SDS011;15212;48.830;8.730;2024-01-30T03:02:21;4.62;;;2.50;;
27847;SDS011;15212;48.830;8.730;2024-01-30T03:04:49;5.50;;;2.35;;
27847;SDS011;15212;48.830;8.730;2024-01-30T03:07:17;3.52;;;1.92;;
27847;SDS011;15212;48.830;8.730;2024-01-30T03:09:46;7.83;;;2.58;;
27847;SDS011;15212;48.830;8.730;2024-01-30T03:12:14;6.40;;;2.30;;
27847;SDS011;15212;48.830;8.730;2024-01-30T03:14:42;7.53;;;2.17;;
27847;SDS011;15212;48.830;8.730;2024-01-30T03:17:11;6.03;;;2.47;;
27847;SDS011;15212;48.830;8.730;2024-01-30T03:19:39;3.58;;;2.05;;
27847;SDS011;15212;48.830;8.730;2024-01-30T03:22:08;3.00;;;2.00;;
27847;SDS011;15212;48.830;8.730;2024-01-30T03:24:36;7.87;;;2.22;;
27847;SDS011;15212;48.830;8.730;2024-01-30T03:27:04;4.12;;;1.92;;
27847;SDS011;15212;48.830;8.730;2024-01-30T03:29:33;3.20;;;2.20;;
27847;SDS011;15212;48.830;8.730;2024-01-30T03:32:01;5.75;;;2.25;;
27847;SDS011;15212;48.830;8.730;2024-01-30T03:34:30;3.20;;;2.08;;
27847;SDS011;15212;48.830;8.730;2024-01-30T03:36:58;3.90;;;2.30;;
27847;SDS011;15212;48.830;8.730;2024-01-30T03:39:27;4.10;;;2.10;;
27847;SDS011;15212;48.830;8.730;2024-01-30T03:41:55;5.70;;;2.10;;
27847;SDS011;15212;48.830;8.730;2024-01-30T03:44:23;4.92;;;2.20;;
27847;SDS011;15212;48.830;8.730;2024-01-30T03:46:52;4.62;;;2.37;;
27847;SDS011;15212;48.830;8.730;2024-01-30T03:49:20;3.33;;;2.12;;
27847;SDS011;15212;48.830;8.730;2024-01-30T03:51:48;6.42;;;2.05;;
27847;SDS011;15212;48.830;8.730;2024-01-30T03:54:17;7.10;;;2.40;;
27847;SDS011;15212;48.830;8.730;2024-01-30T03:56:45;5.12;;;2.25;;
27847;SDS011;15212;48.830;8.730;2024-01-30T03:59:13;5.90;;;2.05;;
27847;SDS011;15212;48.830;8.730;2024-01-30T04:01:46;5.45;;;2.10;;
27847;SDS011;15212;48.830;8.730;2024-01-30T04:04:14;5.60;;;2.27;;
27847;SDS011;15212;48.830;8.730;2024-01-30T04:06:42;3.27;;;1.90;;
27847;SDS011;15212;48.830;8.730;2024-01-30T04:09:12;3.47;;;2.00;;
27847;SDS011;15212;48.830;8.730;2024-01-30T04:11:41;5.92;;;2.00;;
27847;SDS011;15212;48.830;8.730;2024-01-30T04:14:10;3.08;;;1.80;;
27847;SDS011;15212;48.830;8.730;2024-01-30T04:16:38;4.75;;;2.17;;
27847;SDS011;15212;48.830;8.730;2024-01-30T04:19:07;2.70;;;1.80;;
27847;SDS011;15212;48.830;8.730;2024-01-30T04:21:35;2.72;;;1.75;;
27847;SDS011;15212;48.830;8.730;2024-01-30T04:24:04;6.45;;;2.20;;
27847;SDS011;15212;48.830;8.730;2024-01-30T04:26:32;2.62;;;1.92;;
27847;SDS011;15212;48.830;8.730;2024-01-30T04:29:02;3.65;;;2.20;;
27847;SDS011;15212;48.830;8.730;2024-01-30T04:31:30;3.27;;;2.08;;
27847;SDS011;15212;48.830;8.730;2024-01-30T04:33:59;6.85;;;2.20;;
27847;SDS011;15212;48.830;8.730;2024-01-30T04:36:27;5.20;;;2.20;;
27847;SDS011;15212;48.830;8.730;2024-01-30T04:38:56;3.00;;;1.95;;
27847;SDS011;15212;48.830;8.730;2024-01-30T04:41:24;4.22;;;2.37;;
27847;SDS011;15212;48.830;8.730;2024-01-30T04:43:54;4.58;;;2.05;;
27847;SDS011;15212;48.830;8.730;2024-01-30T04:46:22;3.35;;;1.85;;
27847;SDS011;15212;48.830;8.730;2024-01-30T04:48:51;4.30;;;2.22;;
27847;SDS011;15212;48.830;8.730;2024-01-30T04:51:19;4.35;;;2.20;;
27847;SDS011;15212;48.830;8.730;2024-01-30T04:53:47;4.00;;;1.90;;
27847;SDS011;15212;48.830;8.730;2024-01-30T04:56:16;3.25;;;2.20;;
27847;SDS011;15212;48.830;8.730;2024-01-30T04:58:44;4.78;;;2.30;;
27847;SDS011;15212;48.830;8.730;2024-01-30T05:01:15;4.22;;;2.12;;
27847;SDS011;15212;48.830;8.730;2024-01-30T05:03:44;2.80;;;1.90;;
27847;SDS011;15212;48.830;8.730;2024-01-30T05:06:13;5.08;;;2.33;;
27847;SDS011;15212;48.830;8.730;2024-01-30T05:08:52;4.22;;;2.10;;
27847;SDS011;15212;48.830;8.730;2024-01-30T05:11:21;7.05;;;2.22;;
27847;SDS011;15212;48.830;8.730;2024-01-30T05:13:49;4.08;;;2.15;;
27847;SDS011;15212;48.830;8.730;2024-01-30T05:16:17;6.10;;;2.15;;
27847;SDS011;15212;48.830;8.730;2024-01-30T05:18:46;5.58;;;2.25;;
27847;SDS011;15212;48.830;8.730;2024-01-30T05:21:14;4.10;;;2.02;;
27847;SDS011;15212;48.830;8.730;2024-01-30T05:23:43;4.60;;;2.30;;
27847;SDS011;15212;48.830;8.730;2024-01-30T05:26:11;3.33;;;2.25;;
27847;SDS011;15212;48.830;8.730;2024-01-30T05:28:39;3.22;;;2.12;;
27847;SDS011;15212;48.830;8.730;2024-01-30T05:31:10;5.45;;;2.02;;
27847;SDS011;15212;48.830;8.730;2024-01-30T05:33:38;4.30;;;2.00;;
27847;SDS011;15212;48.830;8.730;2024-01-30T05:36:07;4.95;;;2.20;;
27847;SDS011;15212;48.830;8.730;2024-01-30T05:38:37;6.90;;;2.10;;
27847;SDS011;15212;48.830;8.730;2024-01-30T05:41:06;3.87;;;1.98;;
27847;SDS011;15212;48.830;8.730;2024-01-30T05:43:35;3.22;;;1.85;;
27847;SDS011;15212;48.830;8.730;2024-01-30T05:46:03;5.58;;;2.00;;
27847;SDS011;15212;48.830;8.730;2024-01-30T05:48:32;7.15;;;2.30;;
27847;SDS011;15212;48.830;8.730;2024-01-30T05:51:01;5.40;;;2.30;;
27847;SDS011;15212;48.830;8.730;2024-01-30T05:53:30;4.12;;;2.22;;
27847;SDS011;15212;48.830;8.730;2024-01-30T05:56:01;3.77;;;2.00;;
27847;SDS011;15212;48.830;8.730;2024-01-30T05:58:29;3.58;;;2.00;;
27847;SDS011;15212;48.830;8.730;2024-01-30T06:00:58;5.47;;;2.25;;
27847;SDS011;15212;48.830;8.730;2024-01-30T06:03:26;7.50;;;2.42;;
27847;SDS011;15212;48.830;8.730;2024-01-30T06:05:55;5.17;;;2.20;;
27847;SDS011;15212;48.830;8.730;2024-01-30T06:08:23;3.62;;;1.90;;
27847;SDS011;15212;48.830;8.730;2024-01-30T06:10:51;4.62;;;2.00;;
27847;SDS011;15212;48.830;8.730;2024-01-30T06:13:20;5.85;;;2.00;;
27847;SDS011;15212;48.830;8.730;2024-01-30T06:15:48;3.27;;;1.90;;
27847;SDS011;15212;48.830;8.730;2024-01-30T06:18:17;2.95;;;1.92;;
27847;SDS011;15212;48.830;8.730;2024-01-30T06:20:46;4.47;;;1.90;;
27847;SDS011;15212;48.830;8.730;2024-01-30T06:23:14;3.45;;;1.82;;
27847;SDS011;15212;48.830;8.730;2024-01-30T06:25:43;2.67;;;1.72;;
27847;SDS011;15212;48.830;8.730;2024-01-30T06:28:12;3.25;;;2.25;;
27847;SDS011;15212;48.830;8.730;2024-01-30T06:30:40;7.50;;;2.45;;
27847;SDS011;15212;48.830;8.730;2024-01-30T06:33:11;5.08;;;2.27;;
27847;SDS011;15212;48.830;8.730;2024-01-30T06:35:40;5.25;;;2.10;;
27847;SDS011;15212;48.830;8.730;2024-01-30T06:38:08;4.12;;;2.02;;
27847;SDS011;15212;48.830;8.730;2024-01-30T06:40:37;2.17;;;1.92;;
27847;SDS011;15212;48.830;8.730;2024-01-30T06:43:05;5.50;;;2.05;;
27847;SDS011;15212;48.830;8.730;2024-01-30T06:45:34;3.62;;;1.82;;
27847;SDS011;15212;48.830;8.730;2024-01-30T06:48:02;3.65;;;2.02;;
27847;SDS011;15212;48.830;8.730;2024-01-30T06:50:31;6.60;;;2.17;;
27847;SDS011;15212;48.830;8.730;2024-01-30T06:52:59;3.10;;;2.10;;
27847;SDS011;15212;48.830;8.730;2024-01-30T06:55:27;5.78;;;2.30;;
27847;SDS011;15212;48.830;8.730;2024-01-30T06:57:56;4.47;;;2.25;;
27847;SDS011;15212;48.830;8.730;2024-01-30T07:00:24;3.80;;;2.02;;
27847;SDS011;15212;48.830;8.730;2024-01-30T07:02:53;3.10;;;1.72;;
27847;SDS011;15212;48.830;8.730;2024-01-30T07:05:21;3.65;;;2.02;;
27847;SDS011;15212;48.830;8.730;2024-01-30T07:07:49;5.55;;;1.75;;
27847;SDS011;15212;48.830;8.730;2024-01-30T07:10:18;3.50;;;1.72;;
27847;SDS011;15212;48.830;8.730;2024-01-30T07:12:46;4.00;;;1.95;;
27847;SDS011;15212;48.830;8.730;2024-01-30T07:15:15;3.90;;;2.00;;
27847;SDS011;15212;48.830;8.730;2024-01-30T07:17:45;3.80;;;2.20;;
27847;SDS011;15212;48.830;8.730;2024-01-30T07:20:13;6.10;;;2.12;;
27847;SDS011;15212;48.830;8.730;2024-01-30T07:22:42;3.37;;;2.20;;
27847;SDS011;15212;48.830;8.730;2024-01-30T07:25:11;7.03;;;2.17;;
27847;SDS011;15212;48.830;8.730;2024-01-30T07:27:41;6.50;;;2.45;;
27847;SDS011;15212;48.830;8.730;2024-01-30T07:30:09;4.20;;;2.50;;
27847;SDS011;15212;48.830;8.730;2024-01-30T07:32:38;3.72;;;2.42;;
27847;SDS011;15212;48.830;8.730;2024-01-30T07:35:06;4.70;;;2.50;;
27847;SDS011;15212;48.830;8.730;2024-01-30T07:37:35;7.20;;;2.40;;
27847;SDS011;15212;48.830;8.730;2024-01-30T07:40:03;4.53;;;2.52;;
27847;SDS011;15212;48.830;8.730;2024-01-30T07:42:33;4.03;;;2.50;;
27847;SDS011;15212;48.830;8.730;2024-01-30T07:45:01;4.05;;;2.25;;
27847;SDS011;15212;48.830;8.730;2024-01-30T07:47:30;4.92;;;3.22;;
27847;SDS011;15212;48.830;8.730;2024-01-30T07:49:58;5.58;;;2.87;;
27847;SDS011;15212;48.830;8.730;2024-01-30T07:52:26;4.10;;;2.40;;
27847;SDS011;15212;48.830;8.730;2024-01-30T07:58:29;4.72;;;2.40;;
27847;SDS011;15212;48.830;8.730;2024-01-30T08:00:57;4.35;;;1.98;;
27847;SDS011;15212;48.830;8.730;2024-01-30T08:03:26;4.00;;;2.35;;
27847;SDS011;15212;48.830;8.730;2024-01-30T08:05:55;4.22;;;2.37;;
27847;SDS011;15212;48.830;8.730;2024-01-30T08:08:23;6.65;;;2.60;;
27847;SDS011;15212;48.830;8.730;2024-01-30T08:10:52;4.95;;;2.20;;
27847;SDS011;15212;48.830;8.730;2024-01-30T08:13:21;3.98;;;2.10;;
27847;SDS011;15212;48.830;8.730;2024-01-30T08:15:49;5.65;;;2.37;;
27847;SDS011;15212;48.830;8.730;2024-01-30T08:18:17;4.00;;;2.47;;
27847;SDS011;15212;48.830;8.730;2024-01-30T08:20:46;5.25;;;2.37;;
27847;SDS011;15212;48.830;8.730;2024-01-30T08:23:15;4.87;;;2.62;;
27847;SDS011;15212;48.830;8.730;2024-01-30T08:25:43;4.05;;;2.40;;
27847;SDS011;15212;48.830;8.730;2024-01-30T08:28:11;5.45;;;2.47;;
27847;SDS011;15212;48.830;8.730;2024-01-30T08:30:40;3.83;;;2.15;;
27847;SDS011;15212;48.830;8.730;2024-01-30T08:33:08;3.92;;;2.33;;
27847;SDS011;15212;48.830;8.730;2024-01-30T08:35:37;3.17;;;1.90;;
27847;SDS011;15212;48.830;8.730;2024-01-30T08:38:05;9.53;;;2.40;;
27847;SDS011;15212;48.830;8.730;2024-01-30T08:40:33;3.95;;;2.30;;
27847;SDS011;15212;48.830;8.730;2024-01-30T08:43:02;3.72;;;2.30;;
27847;SDS011;15212;48.830;8.730;2024-01-30T08:45:30;4.08;;;1.95;;
27847;SDS011;15212;48.830;8.730;2024-01-30T08:47:59;6.55;;;2.55;;
27847;SDS011;15212;48.830;8.730;2024-01-30T08:50:27;4.87;;;2.30;;
27847;SDS011;15212;48.830;8.730;2024-01-30T08:52:55;4.47;;;2.10;;
27847;SDS011;15212;48.830;8.730;2024-01-30T08:55:24;4.47;;;2.20;;
27847;SDS011;15212;48.830;8.730;2024-01-30T08:57:52;4.72;;;2.22;;
27847;SDS011;15212;48.830;8.730;2024-01-30T09:00:20;4.00;;;2.10;;
27847;SDS011;15212;48.830;8.730;2024-01-30T09:02:49;3.87;;;2.00;;
27847;SDS011;15212;48.830;8.730;2024-01-30T09:05:18;3.62;;;1.98;;
27847;SDS011;15212;48.830;8.730;2024-01-30T09:07:46;3.35;;;2.15;;
27847;SDS011;15212;48.830;8.730;2024-01-30T09:10:15;3.92;;;2.05;;
27847;SDS011;15212;48.830;8.730;2024-01-30T09:12:43;2.95;;;2.00;;
27847;SDS011;15212;48.830;8.730;2024-01-30T09:15:11;5.30;;;2.52;;
27847;SDS011;15212;48.830;8.730;2024-01-30T09:17:41;5.08;;;2.50;;
27847;SDS011;15212;48.830;8.730;2024-01-30T09:20:10;3.12;;;2.10;;
27847;SDS011;15212;48.830;8.730;2024-01-30T09:22:39;4.47;;;2.30;;
27847;SDS011;15212;48.830;8.730;2024-01-30T09:25:07;4.50;;;2.42;;
27847;SDS011;15212;48.830;8.730;2024-01-30T09:27:35;4.53;;;2.42;;
27847;SDS011;15212;48.830;8.730;2024-01-30T09:30:04;3.50;;;2.33;;
27847;SDS011;15212;48.830;8.730;2024-01-30T09:32:54;3.35;;;2.12;;
27847;SDS011;15212;48.830;8.730;2024-01-30T09:35:22;6.85;;;2.42;;
27847;SDS011;15212;48.830;8.730;2024-01-30T09:37:50;3.87;;;2.35;;
27847;SDS011;15212;48.830;8.730;2024-01-30T09:40:19;5.80;;;2.83;;
27847;SDS011;15212;48.830;8.730;2024-01-30T09:42:47;6.67;;;2.35;;
27847;SDS011;15212;48.830;8.730;2024-01-30T09:45:19;3.62;;;2.30;;
27847;SDS011;15212;48.830;8.730;2024-01-30T09:47:52;8.03;;;2.33;;
27847;SDS011;15212;48.830;8.730;2024-01-30T09:50:21;3.72;;;2.33;;
27847;SDS011;15212;48.830;8.730;2024-01-30T09:52:49;5.10;;;2.52;;
27847;SDS011;15212;48.830;8.730;2024-01-30T09:55:20;4.10;;;2.30;;
27847;SDS011;15212;48.830;8.730;2024-01-30T09:57:49;3.85;;;2.27;;
27847;SDS011;15212;48.830;8.730;2024-01-30T10:00:17;4.85;;;2.47;;
27847;SDS011;15212;48.830;8.730;2024-01-30T10:02:46;4.78;;;2.50;;
27847;SDS011;15212;48.830;8.730;2024-01-30T10:05:15;3.67;;;2.27;;
27847;SDS011;15212;48.830;8.730;2024-01-30T10:07:57;3.90;;;2.30;;
27847;SDS011;15212;48.830;8.730;2024-01-30T10:10:22;3.22;;;2.17;;
27847;SDS011;15212;48.830;8.730;2024-01-30T10:12:51;6.72;;;2.47;;
27847;SDS011;15212;48.830;8.730;2024-01-30T10:15:20;5.03;;;2.67;;
27847;SDS011;15212;48.830;8.730;2024-01-30T10:17:49;3.92;;;2.50;;
27847;SDS011;15212;48.830;8.730;2024-01-30T10:20:17;5.15;;;2.45;;
27847;SDS011;15212;48.830;8.730;2024-01-30T10:22:47;4.85;;;2.40;;
27847;SDS011;15212;48.830;8.730;2024-01-30T10:25:17;3.77;;;2.30;;
27847;SDS011;15212;48.830;8.730;2024-01-30T10:27:45;3.90;;;2.55;;
27847;SDS011;15212;48.830;8.730;2024-01-30T10:30:14;3.72;;;2.20;;
27847;SDS011;15212;48.830;8.730;2024-01-30T10:32:42;4.75;;;2.27;;
27847;SDS011;15212;48.830;8.730;2024-01-30T10:35:10;4.30;;;2.20;;
27847;SDS011;15212;48.830;8.730;2024-01-30T10:37:39;5.22;;;2.40;;
27847;SDS011;15212;48.830;8.730;2024-01-30T10:40:09;6.35;;;2.08;;
27847;SDS011;15212;48.830;8.730;2024-01-30T10:42:42;3.95;;;2.40;;
27847;SDS011;15212;48.830;8.730;2024-01-30T10:45:12;4.60;;;2.42;;
27847;SDS011;15212;48.830;8.730;2024-01-30T10:47:50;4.67;;;2.40;;
27847;SDS011;15212;48.830;8.730;2024-01-30T10:50:24;3.12;;;2.12;;
27847;SDS011;15212;48.830;8.730;2024-01-30T10:52:54;4.90;;;2.70;;
27847;SDS011;15212;48.830;8.730;2024-01-30T10:55:23;4.97;;;2.47;;
27847;SDS011;15212;48.830;8.730;2024-01-30T10:57:54;6.53;;;2.98;;
27847;SDS011;15212;48.830;8.730;2024-01-30T11:00:22;7.67;;;3.25;;
27847;SDS011;15212;48.830;8.730;2024-01-30T11:02:52;7.20;;;3.00;;
27847;SDS011;15212;48.830;8.730;2024-01-30T11:05:24;4.75;;;2.67;;
27847;SDS011;15212;48.830;8.730;2024-01-30T11:07:53;8.23;;;2.67;;
27847;SDS011;15212;48.830;8.730;2024-01-30T11:10:21;4.90;;;2.35;;
27847;SDS011;15212;48.830;8.730;2024-01-30T11:12:52;5.22;;;2.62;;
27847;SDS011;15212;48.830;8.730;2024-01-30T11:15:20;4.80;;;2.30;;
27847;SDS011;15212;48.830;8.730;2024-01-30T11:17:51;7.33;;;2.60;;
27847;SDS011;15212;48.830;8.730;2024-01-30T11:20:25;3.65;;;2.30;;
27847;SDS011;15212;48.830;8.730;2024-01-30T11:25:24;5.15;;;2.65;;
27847;SDS011;15212;48.830;8.730;2024-01-30T11:27:53;4.28;;;2.70;;
27847;SDS011;15212;48.830;8.730;2024-01-30T11:30:23;4.28;;;2.60;;
27847;SDS011;15212;48.830;8.730;2024-01-30T11:33:00;5.53;;;2.40;;
27847;SDS011;15212;48.830;8.730;2024-01-30T11:35:42;4.53;;;2.60;;
27847;SDS011;15212;48.830;8.730;2024-01-30T11:38:13;3.72;;;2.37;;
27847;SDS011;15212;48.830;8.730;2024-01-30T11:40:43;8.05;;;4.05;;
27847;SDS011;15212;48.830;8.730;2024-01-30T11:43:12;6.58;;;3.22;;
27847;SDS011;15212;48.830;8.730;2024-01-30T11:45:40;6.55;;;3.40;;
27847;SDS011;15212;48.830;8.730;2024-01-30T11:48:16;6.17;;;2.85;;
27847;SDS011;15212;48.830;8.730;2024-01-30T11:50:40;5.72;;;3.10;;
27847;SDS011;15212;48.830;8.730;2024-01-30T11:53:11;5.47;;;3.22;;
27847;SDS011;15212;48.830;8.730;2024-01-30T11:55:39;7.47;;;3.50;;
27847;SDS011;15212;48.830;8.730;2024-01-30T11:58:08;8.45;;;4.10;;
27847;SDS011;15212;48.830;8.730;2024-01-30T12:00:37;9.40;;;3.77;;
27847;SDS011;15212;48.830;8.730;2024-01-30T12:03:05;3.55;;;2.58;;
27847;SDS011;15212;48.830;8.730;2024-01-30T12:05:34;6.03;;;3.00;;
27847;SDS011;15212;48.830;8.730;2024-01-30T12:08:04;4.95;;;2.83;;
27847;SDS011;15212;48.830;8.730;2024-01-30T12:10:32;5.05;;;3.10;;
27847;SDS011;15212;48.830;8.730;2024-01-30T12:13:01;6.20;;;2.60;;
27847;SDS011;15212;48.830;8.730;2024-01-30T12:15:30;5.72;;;2.72;;
27847;SDS011;15212;48.830;8.730;2024-01-30T12:18:05;4.33;;;2.30;;
27847;SDS011;15212;48.830;8.730;2024-01-30T12:20:34;4.47;;;2.65;;
27847;SDS011;15212;48.830;8.730;2024-01-30T12:23:03;5.33;;;2.60;;
27847;SDS011;15212;48.830;8.730;2024-01-30T12:25:32;5.12;;;2.77;;
27847;SDS011;15212;48.830;8.730;2024-01-30T12:28:00;5.55;;;2.90;;
27847;SDS011;15212;48.830;8.730;2024-01-30T12:30:28;5.75;;;2.80;;
27847;SDS011;15212;48.830;8.730;2024-01-30T12:32:57;5.50;;;2.83;;
27847;SDS011;15212;48.830;8.730;2024-01-30T12:35:25;5.53;;;2.90;;
27847;SDS011;15212;48.830;8.730;2024-01-30T12:37:54;3.98;;;2.12;;
27847;SDS011;15212;48.830;8.730;2024-01-30T12:40:22;3.80;;;2.17;;
27847;SDS011;15212;48.830;8.730;2024-01-30T12:42:52;3.47;;;2.22;;
27847;SDS011;15212;48.830;8.730;2024-01-30T12:45:20;5.45;;;2.42;;
27847;SDS011;15212;48.830;8.730;2024-01-30T12:47:49;5.15;;;2.60;;
27847;SDS011;15212;48.830;8.730;2024-01-30T12:50:17;5.20;;;2.30;;
27847;SDS011;15212;48.830;8.730;2024-01-30T12:52:46;5.30;;;2.60;;
27847;SDS011;15212;48.830;8.730;2024-01-30T12:55:14;5.25;;;2.70;;
27847;SDS011;15212;48.830;8.730;2024-01-30T12:57:43;5.70;;;2.70;;
27847;SDS011;15212;48.830;8.730;2024-01-30T13:00:12;5.15;;;2.35;;
27847;SDS011;15212;48.830;8.730;2024-01-30T13:02:42;5.90;;;2.50;;
27847;SDS011;15212;48.830;8.730;2024-01-30T13:05:11;6.17;;;2.58;;
27847;SDS011;15212;48.830;8.730;2024-01-30T13:07:39;3.60;;;1.85;;
27847;SDS011;15212;48.830;8.730;2024-01-30T13:10:08;5.67;;;2.40;;
27847;SDS011;15212;48.830;8.730;2024-01-30T13:12:36;4.08;;;2.30;;
27847;SDS011;15212;48.830;8.730;2024-01-30T13:15:05;6.90;;;2.40;;
27847;SDS011;15212;48.830;8.730;2024-01-30T13:17:33;3.67;;;2.20;;
27847;SDS011;15212;48.830;8.730;2024-01-30T13:20:02;5.53;;;2.80;;
27847;SDS011;15212;48.830;8.730;2024-01-30T13:22:31;3.87;;;2.30;;
27847;SDS011;15212;48.830;8.730;2024-01-30T13:24:59;4.78;;;2.33;;
27847;SDS011;15212;48.830;8.730;2024-01-30T13:27:27;3.80;;;2.27;;
27847;SDS011;15212;48.830;8.730;2024-01-30T13:29:56;4.80;;;2.70;;
27847;SDS011;15212;48.830;8.730;2024-01-30T13:32:24;9.75;;;3.20;;
27847;SDS011;15212;48.830;8.730;2024-01-30T13:34:53;6.83;;;2.60;;
27847;SDS011;15212;48.830;8.730;2024-01-30T13:37:22;4.70;;;2.62;;
27847;SDS011;15212;48.830;8.730;2024-01-30T13:39:50;5.72;;;2.90;;
27847;SDS011;15212;48.830;8.730;2024-01-30T13:42:19;5.42;;;2.50;;
27847;SDS011;15212;48.830;8.730;2024-01-30T13:44:47;4.33;;;2.30;;
27847;SDS011;15212;48.830;8.730;2024-01-30T13:47:16;7.17;;;3.02;;
27847;SDS011;15212;48.830;8.730;2024-01-30T13:49:46;6.85;;;3.20;;
27847;SDS011;15212;48.830;8.730;2024-01-30T13:52:14;5.65;;;2.83;;
27847;SDS011;15212;48.830;8.730;2024-01-30T13:54:43;4.40;;;2.72;;
27847;SDS011;15212;48.830;8.730;2024-01-30T13:57:11;4.75;;;2.60;;
27847;SDS011;15212;48.830;8.730;2024-01-30T13:59:40;6.12;;;2.80;;
27847;SDS011;15212;48.830;8.730;2024-01-30T14:02:08;5.83;;;3.47;;
27847;SDS011;15212;48.830;8.730;2024-01-30T14:04:37;7.05;;;3.12;;
27847;SDS011;15212;48.830;8.730;2024-01-30T14:07:06;9.60;;;4.55;;
27847;SDS011;15212;48.830;8.730;2024-01-30T14:09:34;6.75;;;3.95;;
27847;SDS011;15212;48.830;8.730;2024-01-30T14:12:03;6.55;;;2.75;;
27847;SDS011;15212;48.830;8.730;2024-01-30T14:14:31;5.67;;;3.08;;
27847;SDS011;15212;48.830;8.730;2024-01-30T14:17:00;5.70;;;3.22;;
27847;SDS011;15212;48.830;8.730;2024-01-30T14:19:31;7.50;;;4.03;;
27847;SDS011;15212;48.830;8.730;2024-01-30T14:22:01;9.83;;;3.77;;
27847;SDS011;15212;48.830;8.730;2024-01-30T14:24:29;9.65;;;3.87;;
27847;SDS011;15212;48.830;8.730;2024-01-30T14:26:58;11.60;;;4.92;;
27847;SDS011;15212;48.830;8.730;2024-01-30T14:29:26;10.00;;;5.30;;
27847;SDS011;15212;48.830;8.730;2024-01-30T14:31:55;10.85;;;5.30;;
27847;SDS011;15212;48.830;8.730;2024-01-30T14:34:23;9.08;;;4.53;;
27847;SDS011;15212;48.830;8.730;2024-01-30T14:36:53;9.70;;;4.50;;
27847;SDS011;15212;48.830;8.730;2024-01-30T14:39:21;13.40;;;4.53;;
27847;SDS011;15212;48.830;8.730;2024-01-30T14:41:49;7.22;;;4.35;;
27847;SDS011;15212;48.830;8.730;2024-01-30T14:44:18;12.10;;;4.53;;
27847;SDS011;15212;48.830;8.730;2024-01-30T14:46:46;14.07;;;4.70;;
27847;SDS011;15212;48.830;8.730;2024-01-30T14:49:15;10.78;;;4.42;;
27847;SDS011;15212;48.830;8.730;2024-01-30T14:51:43;11.90;;;5.03;;
27847;SDS011;15212;48.830;8.730;2024-01-30T14:54:12;6.50;;;3.67;;
27847;SDS011;15212;48.830;8.730;2024-01-30T14:56:41;9.20;;;4.10;;
27847;SDS011;15212;48.830;8.730;2024-01-30T14:59:10;9.43;;;4.25;;
27847;SDS011;15212;48.830;8.730;2024-01-30T15:01:38;10.18;;;4.03;;
27847;SDS011;15212;48.830;8.730;2024-01-30T15:04:06;13.53;;;4.55;;